메인 페이지
METAR-TAF:

METAR-TAF

공항 :

이라클리오, 그리스

위도: 35-20N, 경도: 025-11E, 고도: 37m

현재 날씨관측

예보는 26분 전, 07:50시(UTC)에 발표되었습니다.
북서18kt
온도 19°C
습도 73%
기압 1017 hPa
시정 10km 이상
고도 2000ft 상공 구름 보통

METAR: LGIR 100750Z 31018KT 9999 SCT020 19/14 Q1017 NOSIG

시각: 11:16 (08:16 UTC)

예보

예보는 3 시간 16분 전, 05:00시(UTC)에 발표되었습니다.
예보 대상 시간: 10일 06시부터 11일 06시까지 (UTC)
북북서17kt
시정 10km 이상
고도 2000ft 상공 구름 조금
일시적
10일 06시부터 10일 12시까지 (UTC)
북북서17kt, 순간 최대 풍속 27kt

TAF: LGIR 100500Z 1006/1106 33017KT 9999 FEW020 TEMPO 1006/1012 33017G27KT

4,000개 이상의 공항 관측 자료 및 예보 (METAR 및 TAF 보고).

지도상에서 검색 가능한 기상관측소가 노란 점과 빨간 점으로 표시되어 있습니다.

기상관측소 명을 보려면 표시 위로 마우스를 이동하세요.

날씨 관측과 예보를 보려면 클릭하세요.

지도 변경 : 확대하려면 엑스 표시가 있는 녹색 버튼, 축소하려면 빼기 표시가 있는 녹색 버튼, 다음 페이지의 지도를 보려면 녹색 화살표를 클릭하세요.


METAR-TAF: